This is the latest recevied weather packets stored in our database for station/object DB2YI-13. If no packets are shown the sender has not sent any weather packets the latest 10 day(s).
| Time | Temp. | Humidity | Pressure | Rain* | Wind** | Luminosity | Snow |
|---|---|---|---|---|---|---|---|
| 1777918801 | 15.56° C | 78% | - | 0 mm | - | - | - |
| 1777918202 | 15.56° C | 78% | - | 0 mm | - | - | - |
| 1777917612 | 15.56° C | 78% | - | 0 mm | - | - | - |
| 1777917001 | 16.11° C | 78% | - | 0 mm | - | - | - |
| 1777916406 | 16.11° C | 78% | - | 0 mm | - | - | - |
| 1777915201 | 16.11° C | 77% | - | 0 mm | - | - | - |
| 1777914001 | 16.67° C | 76% | - | 0 mm | - | - | - |
| 1777913401 | 16.67° C | 76% | - | 0 mm | - | - | - |
| 1777912801 | 16.11° C | 76% | - | 0 mm | - | - | - |
| 1777912201 | 16.11° C | 76% | - | 0 mm | - | - | - |
| 1777911602 | 16.11° C | 77% | - | 0 mm | - | - | - |
| 1777911001 | 16.11° C | 78% | - | 0 mm | - | - | - |
| 1777910401 | 16.11° C | 78% | - | 0 mm | - | - | - |
| 1777909801 | 16.67° C | 78% | - | 0 mm | - | - | - |
| 1777909201 | 16.67° C | 77% | - | 0 mm | - | - | - |
| 1777908601 | 16.67° C | 77% | - | 0 mm | - | - | - |
| 1777908002 | 16.67° C | 77% | - | 0 mm | - | - | - |
| 1777907401 | 16.67° C | 77% | - | 0 mm | - | - | - |
| 1777906802 | 16.67° C | 77% | - | 0 mm | - | - | - |
| 1777906201 | 17.22° C | 71% | - | 0 mm | - | - | - |
| 1777905601 | 20.56° C | 56% | - | 0 mm | - | - | - |
| 1777905001 | 21.11° C | 53% | - | 0 mm | - | - | - |
| 1777904402 | 21.11° C | 53% | - | 0 mm | - | - | - |
| 1777903801 | 21.11° C | 54% | - | 0 mm | - | - | - |
| 1777903202 | 21.11° C | 53% | - | 0 mm | - | - | - |
* Rain latest hour (hover to see other rain measurements)
** Current wind speed in m/s (hover to see current wind gust speed)